createdAt,value
2023-02-07T00:02:19.457Z,102954.90
2023-02-07T00:04:50.373Z,102950.14
2023-02-07T00:07:21.218Z,102957.16
2023-02-07T00:09:52.119Z,102959.46
2023-02-07T00:12:22.796Z,102961.35
2023-02-07T00:14:53.452Z,102964.75
2023-02-07T00:17:24.319Z,102966.94
2023-02-07T00:19:54.964Z,102969.34
2023-02-07T00:22:25.652Z,102973.00
2023-02-07T00:24:56.722Z,102971.71
2023-02-07T00:27:27.478Z,102970.52
2023-02-07T00:29:58.542Z,102965.95
2023-02-07T00:32:34.364Z,102968.23
2023-02-07T00:35:05.742Z,102968.73
2023-02-07T00:37:36.944Z,102964.66
2023-02-07T00:40:09.266Z,102967.96
2023-02-07T00:42:39.933Z,102972.36
2023-02-07T00:45:12.336Z,102972.72
2023-02-07T00:47:43.112Z,102977.00
2023-02-07T00:50:14.069Z,102973.23
2023-02-07T00:52:44.844Z,102978.02
2023-02-07T00:55:16.498Z,102985.61
2023-02-07T00:57:47.155Z,102987.42
2023-02-07T01:00:19.724Z,102985.50
2023-02-07T01:02:51.021Z,102990.11
2023-02-07T01:05:21.961Z,102989.34
2023-02-07T01:07:52.860Z,102984.52
2023-02-07T01:10:24.806Z,102975.84
2023-02-07T01:12:56.149Z,102974.95
2023-02-07T01:15:27.677Z,102971.10
2023-02-07T01:17:58.534Z,102968.40
2023-02-07T01:20:31.429Z,102963.04
2023-02-07T01:23:02.538Z,102965.16
2023-02-07T01:25:33.324Z,102968.16
2023-02-07T01:28:04.329Z,102971.33
2023-02-07T01:30:35.561Z,102974.81
2023-02-07T01:33:06.421Z,102971.70
2023-02-07T01:35:38.228Z,102967.95
2023-02-07T01:38:09.225Z,102966.83
2023-02-07T01:40:41.209Z,102970.94
2023-02-07T01:43:18.530Z,102971.02
2023-02-07T01:45:49.444Z,102970.98
2023-02-07T01:48:24.589Z,102982.52
2023-02-07T01:50:57.865Z,102989.29
2023-02-07T01:53:31.048Z,102984.17
2023-02-07T01:56:04.917Z,102983.39
2023-02-07T01:58:37.137Z,102988.90
2023-02-07T02:01:11.922Z,102988.17
2023-02-07T02:03:48.263Z,102981.00
2023-02-07T02:06:20.813Z,102967.48
2023-02-07T02:08:54.155Z,102960.97
2023-02-07T02:11:58.392Z,102960.10
2023-02-07T02:14:46.870Z,102950.22
2023-02-07T02:17:23.789Z,102937.48
2023-02-07T02:20:25.968Z,102937.80
2023-02-07T02:23:04.740Z,102940.33
2023-02-07T02:26:12.287Z,102945.19
2023-02-07T02:29:10.632Z,102939.05
2023-02-07T02:32:08.118Z,102941.27
2023-02-07T02:34:46.842Z,102944.84
2023-02-07T02:37:24.929Z,102945.05
2023-02-07T02:40:03.528Z,102943.64
2023-02-07T02:42:41.260Z,102948.98
2023-02-07T02:45:17.896Z,102954.02
2023-02-07T02:47:51.933Z,102961.80
2023-02-07T02:50:26.291Z,102965.17
2023-02-07T02:52:57.045Z,102959.46
2023-02-07T02:55:47.779Z,102959.92
2023-02-07T02:58:27.505Z,102954.81
2023-02-07T03:01:08.384Z,102953.30
2023-02-07T03:03:56.022Z,102955.94
2023-02-07T03:06:38.780Z,102951.58
2023-02-07T03:09:25.646Z,102942.56
2023-02-07T03:12:00.646Z,102942.41
2023-02-07T03:14:37.962Z,102945.73
2023-02-07T03:17:19.613Z,102947.87
2023-02-07T03:19:56.404Z,102939.17
2023-02-07T03:22:30.275Z,102939.92
2023-02-07T03:25:05.074Z,102940.27
2023-02-07T03:27:38.176Z,102946.49
2023-02-07T03:30:13.918Z,102949.09
2023-02-07T03:32:48.304Z,102956.69
2023-02-07T03:35:25.271Z,102957.35
2023-02-07T03:37:58.499Z,102956.95
2023-02-07T03:40:32.008Z,102951.96
2023-02-07T03:43:07.752Z,102952.55
2023-02-07T03:45:38.810Z,102953.13
2023-02-07T03:48:10.137Z,102949.17
2023-02-07T03:50:41.118Z,102948.75
2023-02-07T03:53:11.818Z,102952.11
2023-02-07T03:55:42.634Z,102948.94
2023-02-07T03:58:13.458Z,102943.95
2023-02-07T04:00:44.405Z,102940.92
2023-02-07T04:03:15.282Z,102941.89
2023-02-07T04:05:47.305Z,102940.08
2023-02-07T04:08:18.309Z,102936.09
2023-02-07T04:11:00.084Z,102936.69
2023-02-07T04:13:31.088Z,102939.13
2023-02-07T04:16:02.055Z,102942.31
2023-02-07T04:18:32.794Z,102939.36
2023-02-07T04:21:08.531Z,102935.02
2023-02-07T04:23:39.241Z,102932.52
2023-02-07T04:26:10.045Z,102935.42
2023-02-07T04:28:40.906Z,102937.96
2023-02-07T04:31:11.709Z,102941.21
2023-02-07T04:33:42.403Z,102940.55
2023-02-07T04:36:13.282Z,102944.63
2023-02-07T04:38:44.789Z,102947.32
2023-02-07T04:41:15.673Z,102951.73
2023-02-07T04:43:46.738Z,102951.43
2023-02-07T04:46:17.521Z,102953.69
2023-02-07T04:48:49.329Z,102955.33
2023-02-07T04:51:19.992Z,102952.39
2023-02-07T04:53:50.731Z,102956.79
2023-02-07T04:56:21.570Z,102966.83
2023-02-07T04:58:52.358Z,102967.38
2023-02-07T05:01:23.109Z,102967.48
2023-02-07T05:03:53.828Z,102963.91
2023-02-07T05:06:24.577Z,102961.89
2023-02-07T05:08:55.267Z,102965.17
2023-02-07T05:11:26.090Z,102964.39
2023-02-07T05:13:56.875Z,102967.51
2023-02-07T05:16:27.717Z,102965.54
2023-02-07T05:18:58.534Z,102966.16
2023-02-07T05:21:29.330Z,102970.69
2023-02-07T05:24:00.152Z,102975.45
2023-02-07T05:26:30.886Z,102975.22
2023-02-07T05:29:01.628Z,102971.20
2023-02-07T05:31:46.483Z,102966.95
2023-02-07T05:34:17.228Z,102969.35
2023-02-07T05:36:47.958Z,102968.39
2023-02-07T05:39:18.705Z,102973.89
2023-02-07T05:41:49.462Z,102980.11
2023-02-07T05:44:20.563Z,102982.50
2023-02-07T05:46:52.707Z,102987.58
2023-02-07T05:49:24.218Z,102987.69
2023-02-07T05:51:54.963Z,102992.02
2023-02-07T05:54:25.816Z,102994.11
2023-02-07T05:56:56.606Z,102994.30
2023-02-07T05:59:27.592Z,102979.69
2023-02-07T06:01:58.346Z,102978.48
2023-02-07T06:04:29.345Z,102977.02
2023-02-07T06:07:00.013Z,102971.67
2023-02-07T06:09:30.852Z,102966.20
2023-02-07T06:12:03.129Z,102960.77
2023-02-07T06:14:35.842Z,102953.20
2023-02-07T06:17:06.599Z,102954.69
2023-02-07T06:19:37.436Z,102952.31
2023-02-07T06:22:08.335Z,102945.88
2023-02-07T06:24:39.057Z,102947.56
2023-02-07T06:27:09.918Z,102948.67
2023-02-07T06:29:40.737Z,102956.48
2023-02-07T06:32:11.459Z,102955.19
2023-02-07T06:34:42.253Z,102954.21
2023-02-07T06:37:13.376Z,102960.44
2023-02-07T06:39:44.238Z,102961.56
2023-02-07T06:42:14.993Z,102966.77
2023-02-07T06:44:45.837Z,102967.02
2023-02-07T06:47:16.613Z,102964.69
2023-02-07T06:49:47.576Z,102959.99
2023-02-07T06:52:19.748Z,102957.20
2023-02-07T06:54:50.368Z,102963.70
2023-02-07T06:57:20.981Z,102965.39
2023-02-07T06:59:51.759Z,102968.94
2023-02-07T07:02:22.726Z,102969.86
2023-02-07T07:04:53.692Z,102974.31
2023-02-07T07:07:24.766Z,102977.47
2023-02-07T07:09:55.502Z,102981.25
2023-02-07T07:12:26.372Z,102979.51
2023-02-07T07:14:57.028Z,102974.63
2023-02-07T07:17:27.882Z,102967.30
2023-02-07T07:19:58.822Z,102968.67
2023-02-07T07:22:30.176Z,102974.16
2023-02-07T07:25:00.919Z,102980.60
2023-02-07T07:27:31.683Z,102985.16
2023-02-07T07:30:02.439Z,102987.61
2023-02-07T07:32:35.015Z,102989.24
2023-02-07T07:35:06.540Z,102994.91
2023-02-07T07:37:37.247Z,102991.30
2023-02-07T07:40:09.782Z,102994.68
2023-02-07T07:42:40.557Z,102992.46
2023-02-07T07:45:22.329Z,102997.60
2023-02-07T07:47:53.123Z,102998.70
2023-02-07T07:50:24.095Z,102993.95
2023-02-07T07:52:54.892Z,102994.02
2023-02-07T07:55:25.677Z,102993.45
2023-02-07T07:57:57.127Z,102995.02
2023-02-07T08:00:28.248Z,102998.48
2023-02-07T08:02:59.003Z,102997.28
2023-02-07T08:05:29.695Z,102997.88
2023-02-07T08:08:01.647Z,102998.42
2023-02-07T08:10:32.491Z,103002.09
2023-02-07T08:13:03.234Z,102999.98
2023-02-07T08:15:34.144Z,102994.63
2023-02-07T08:18:05.091Z,102989.44
2023-02-07T08:20:35.913Z,102990.55
2023-02-07T08:23:06.777Z,102987.32
2023-02-07T08:25:37.545Z,102990.80
2023-02-07T08:28:08.356Z,102989.51
2023-02-07T08:30:39.400Z,102989.04
2023-02-07T08:33:11.015Z,102994.53
2023-02-07T08:35:41.837Z,102994.01
2023-02-07T08:38:12.619Z,102993.02
2023-02-07T08:40:43.611Z,102992.61
2023-02-07T08:43:15.532Z,102995.05
2023-02-07T08:45:49.839Z,102996.23
2023-02-07T08:48:21.013Z,102995.20
2023-02-07T08:50:51.741Z,102998.95
2023-02-07T08:53:22.453Z,103006.67
2023-02-07T08:55:53.277Z,103009.76
2023-02-07T08:58:24.178Z,103005.76
2023-02-07T09:00:54.998Z,103005.46
2023-02-07T09:03:25.826Z,103002.96
2023-02-07T09:06:01.359Z,102999.83
2023-02-07T09:08:32.338Z,103007.08
2023-02-07T09:11:09.072Z,103012.89
2023-02-07T09:13:40.272Z,103009.39
2023-02-07T09:16:11.138Z,103003.97
2023-02-07T09:18:41.898Z,103002.98
2023-02-07T09:21:12.522Z,103002.08
2023-02-07T09:23:43.674Z,102996.32
2023-02-07T09:26:19.502Z,102991.55
2023-02-07T09:28:50.203Z,102988.39
2023-02-07T09:31:21.776Z,102988.81
2023-02-07T09:33:52.941Z,102988.73
2023-02-07T09:36:26.049Z,102972.59
2023-02-07T09:38:57.815Z,102984.77
2023-02-07T09:41:37.673Z,102983.24
2023-02-07T09:44:15.464Z,102977.27
2023-02-07T09:46:52.555Z,102965.92
2023-02-07T09:49:38.371Z,102969.70
2023-02-07T09:52:15.923Z,102966.34
2023-02-07T09:54:50.589Z,102966.52
2023-02-07T09:57:26.759Z,102958.75
2023-02-07T10:00:02.737Z,102954.73
2023-02-07T10:02:58.101Z,102955.69
2023-02-07T10:05:35.798Z,102956.49
2023-02-07T10:08:07.256Z,102958.50
2023-02-07T10:10:45.376Z,102963.12
2023-02-07T10:13:44.020Z,102958.17
2023-02-07T10:16:30.857Z,102951.66
2023-02-07T10:19:07.000Z,102952.08
2023-02-07T10:21:46.863Z,102951.09
2023-02-07T10:24:33.856Z,102956.06
2023-02-07T10:27:10.929Z,102958.40
2023-02-07T10:29:57.095Z,102959.46
2023-02-07T10:32:34.636Z,102950.40
2023-02-07T10:35:17.957Z,102951.27
2023-02-07T10:37:52.286Z,102949.58
2023-02-07T10:40:27.264Z,102948.67
2023-02-07T10:43:03.336Z,102948.83
2023-02-07T10:45:34.502Z,102947.98
2023-02-07T10:48:10.868Z,102947.58
2023-02-07T10:50:41.824Z,102952.98
2023-02-07T10:53:12.812Z,102955.55
2023-02-07T10:55:46.801Z,102953.54
2023-02-07T10:58:24.114Z,102959.54
2023-02-07T11:00:57.059Z,102956.67
2023-02-07T11:03:28.243Z,102954.33
2023-02-07T11:06:02.863Z,102952.34
2023-02-07T11:08:36.044Z,102947.70
2023-02-07T11:11:27.284Z,102941.98
2023-02-07T11:14:03.206Z,102940.01
2023-02-07T11:16:35.129Z,102938.95
2023-02-07T11:19:08.335Z,102934.83
2023-02-07T11:21:44.703Z,102933.42
2023-02-07T11:24:21.165Z,102926.08
2023-02-07T11:26:57.554Z,102915.91
2023-02-07T11:29:30.217Z,102914.70
2023-02-07T11:32:03.535Z,102912.87
2023-02-07T11:34:48.835Z,102914.02
2023-02-07T11:37:28.943Z,102911.19
2023-02-07T11:40:18.490Z,102908.39
2023-02-07T11:42:51.093Z,102911.48
2023-02-07T11:45:25.800Z,102911.20
2023-02-07T11:48:00.129Z,102909.97
2023-02-07T11:50:33.498Z,102909.74
2023-02-07T11:53:04.718Z,102909.45
2023-02-07T11:55:37.892Z,102903.52
2023-02-07T11:58:19.502Z,102898.79
2023-02-07T12:00:50.829Z,102907.29
2023-02-07T12:03:26.171Z,102903.89
2023-02-07T12:06:03.057Z,102905.46
2023-02-07T12:08:36.643Z,102904.40
2023-02-07T12:11:13.675Z,102906.61
2023-02-07T12:13:50.350Z,102902.08
2023-02-07T12:16:25.748Z,102892.92
2023-02-07T12:19:04.740Z,102884.63
2023-02-07T12:21:43.734Z,102878.01
2023-02-07T12:24:21.010Z,102878.06
2023-02-07T12:26:57.177Z,102879.50
2023-02-07T12:29:39.701Z,102878.99
2023-02-07T12:32:16.430Z,102874.38
2023-02-07T12:34:53.669Z,102868.79
2023-02-07T12:37:29.598Z,102865.02
2023-02-07T12:40:11.446Z,102862.02
2023-02-07T12:42:45.492Z,102860.11
2023-02-07T12:45:24.276Z,102862.20
2023-02-07T12:47:59.840Z,102863.54
2023-02-07T12:50:50.086Z,102867.38
2023-02-07T12:53:38.188Z,102868.92
2023-02-07T12:56:21.492Z,102872.29
2023-02-07T12:59:00.854Z,102871.20
2023-02-07T13:01:41.124Z,102859.30
2023-02-07T13:04:38.852Z,102855.75
2023-02-07T13:07:21.929Z,102853.65
2023-02-07T13:10:02.126Z,102852.75
2023-02-07T13:12:37.912Z,102855.84
2023-02-07T13:15:17.929Z,102847.00
2023-02-07T13:17:55.933Z,102846.05
2023-02-07T13:20:42.361Z,102843.38
2023-02-07T13:23:19.503Z,102841.55
2023-02-07T13:25:53.221Z,102837.11
2023-02-07T13:28:30.396Z,102832.27
2023-02-07T13:31:02.818Z,102832.94
2023-02-07T13:33:37.976Z,102828.85
2023-02-07T13:36:14.523Z,102826.04
2023-02-07T13:39:00.043Z,102829.64
2023-02-07T13:41:36.166Z,102830.88
2023-02-07T13:44:21.028Z,102829.88
2023-02-07T13:47:15.572Z,102822.55
2023-02-07T13:49:52.409Z,102822.26
2023-02-07T13:52:30.999Z,102821.73
2023-02-07T13:55:11.453Z,102819.48
2023-02-07T13:58:02.311Z,102824.05
2023-02-07T14:00:37.569Z,102819.42
2023-02-07T14:03:20.641Z,102817.05
2023-02-07T14:05:52.401Z,102814.34
2023-02-07T14:08:26.434Z,102810.69
2023-02-07T14:10:58.981Z,102808.53
2023-02-07T14:13:35.215Z,102808.70
2023-02-07T14:16:11.082Z,102808.64
2023-02-07T14:18:48.133Z,102807.55
2023-02-07T14:21:41.034Z,102807.75
2023-02-07T14:24:33.317Z,102803.84
2023-02-07T14:27:28.033Z,102799.98
2023-02-07T14:30:20.206Z,102802.41
2023-02-07T14:33:13.262Z,102796.07
2023-02-07T14:36:22.504Z,102793.35
2023-02-07T14:39:24.259Z,102788.46
2023-02-07T14:41:55.473Z,102791.33
2023-02-07T14:44:34.040Z,102788.91
2023-02-07T14:47:06.902Z,102788.60
2023-02-07T14:49:42.561Z,102790.45
2023-02-07T14:52:16.422Z,102789.13
2023-02-07T14:54:52.012Z,102784.72
2023-02-07T14:57:34.164Z,102784.34
2023-02-07T15:00:28.807Z,102791.27
2023-02-07T15:03:03.019Z,102791.82
2023-02-07T15:05:35.615Z,102790.00
2023-02-07T15:08:17.500Z,102794.94
2023-02-07T15:10:56.786Z,102787.45
2023-02-07T15:13:31.182Z,102792.92
2023-02-07T15:16:06.066Z,102793.02
2023-02-07T15:18:41.076Z,102791.77
2023-02-07T15:21:18.227Z,102801.98
2023-02-07T15:23:54.440Z,102808.05
2023-02-07T15:26:25.383Z,102810.61
2023-02-07T15:29:02.087Z,102817.95
2023-02-07T15:31:38.558Z,102818.38
2023-02-07T15:34:16.693Z,102814.67
2023-02-07T15:36:48.947Z,102828.36
2023-02-07T15:39:23.070Z,102829.34
2023-02-07T15:41:55.764Z,102829.56
2023-02-07T15:44:30.533Z,102832.86
2023-02-07T15:47:04.724Z,102842.55
2023-02-07T15:49:39.728Z,102845.55
2023-02-07T15:52:17.602Z,102844.38
2023-02-07T15:54:51.093Z,102846.56
2023-02-07T15:57:26.486Z,102852.86
2023-02-07T16:00:02.597Z,102863.38
2023-02-07T16:03:00.145Z,102864.80
2023-02-07T16:05:34.066Z,102868.86
2023-02-07T16:08:06.681Z,102873.31
2023-02-07T16:10:40.043Z,102874.24
2023-02-07T16:13:21.559Z,102873.98
2023-02-07T16:16:00.285Z,102869.14
2023-02-07T16:18:42.557Z,102872.73
2023-02-07T16:21:18.622Z,102881.32
2023-02-07T16:23:52.109Z,102893.91
2023-02-07T16:26:27.742Z,102896.70
2023-02-07T16:28:59.075Z,102898.50
2023-02-07T16:31:30.158Z,102900.37
2023-02-07T16:34:00.926Z,102901.49
2023-02-07T16:36:32.198Z,102903.55
2023-02-07T16:39:03.025Z,102900.98
2023-02-07T16:41:36.341Z,102905.64
2023-02-07T16:44:06.844Z,102903.75
2023-02-07T16:46:38.596Z,102910.36
2023-02-07T16:49:15.660Z,102913.45
2023-02-07T16:51:46.845Z,102916.89
2023-02-07T16:54:18.026Z,102919.45
2023-02-07T16:56:51.519Z,102921.86
2023-02-07T16:59:23.546Z,102922.48
2023-02-07T17:01:55.238Z,102920.91
2023-02-07T17:04:25.915Z,102919.98
2023-02-07T17:06:56.639Z,102915.89
2023-02-07T17:09:28.565Z,102916.98
2023-02-07T17:11:59.169Z,102919.21
2023-02-07T17:14:29.835Z,102924.20
2023-02-07T17:17:00.606Z,102926.73
2023-02-07T17:19:31.455Z,102924.54
2023-02-07T17:22:02.255Z,102919.57
2023-02-07T17:24:32.916Z,102924.12
2023-02-07T17:27:03.622Z,102924.98
2023-02-07T17:29:34.356Z,102919.92
2023-02-07T17:32:05.307Z,102917.71
2023-02-07T17:34:36.210Z,102922.55
2023-02-07T17:37:06.837Z,102919.46
2023-02-07T17:39:37.553Z,102921.09
2023-02-07T17:42:08.344Z,102926.53
2023-02-07T17:44:40.391Z,102929.56
2023-02-07T17:47:12.046Z,102927.74
2023-02-07T17:49:42.786Z,102924.38
2023-02-07T17:52:14.724Z,102925.73
2023-02-07T17:54:46.094Z,102934.58
2023-02-07T17:57:16.866Z,102938.34
2023-02-07T17:59:47.496Z,102942.41
2023-02-07T18:02:18.238Z,102940.48
2023-02-07T18:04:51.532Z,102943.59
2023-02-07T18:07:22.296Z,102944.70
2023-02-07T18:09:52.998Z,102943.22
2023-02-07T18:12:23.788Z,102940.50
2023-02-07T18:14:56.531Z,102944.15
2023-02-07T18:17:27.673Z,102942.58
2023-02-07T18:19:58.299Z,102938.53
2023-02-07T18:22:29.073Z,102945.85
2023-02-07T18:25:00.087Z,102947.70
2023-02-07T18:27:31.636Z,102950.81
2023-02-07T18:30:02.394Z,102951.58
2023-02-07T18:32:33.537Z,102958.02
2023-02-07T18:35:05.846Z,102962.23
2023-02-07T18:37:37.038Z,102969.50
2023-02-07T18:40:10.309Z,102972.52
2023-02-07T18:42:41.456Z,102974.04
2023-02-07T18:45:14.504Z,102978.41
2023-02-07T18:47:45.719Z,102970.79
2023-02-07T18:50:19.526Z,102965.75
2023-02-07T18:52:50.838Z,102962.92
2023-02-07T18:55:21.567Z,102961.26
2023-02-07T18:57:55.170Z,102963.08
2023-02-07T19:00:27.554Z,102961.69
2023-02-07T19:02:58.183Z,102961.62
2023-02-07T19:05:28.977Z,102960.56
2023-02-07T19:07:59.911Z,102960.56
2023-02-07T19:10:30.755Z,102964.20
2023-02-07T19:13:01.573Z,102962.35
2023-02-07T19:15:32.333Z,102960.67
2023-02-07T19:18:05.483Z,102955.54
2023-02-07T19:20:36.132Z,102957.96
2023-02-07T19:23:07.354Z,102957.30
2023-02-07T19:25:38.394Z,102956.02
2023-02-07T19:28:09.411Z,102954.11
2023-02-07T19:30:43.631Z,102943.40
2023-02-07T19:33:14.609Z,102950.16
2023-02-07T19:35:45.368Z,102954.20
2023-02-07T19:38:16.857Z,102957.69
2023-02-07T19:40:55.524Z,102951.63
2023-02-07T19:43:26.361Z,102946.71
2023-02-07T19:45:57.057Z,102939.76
2023-02-07T19:48:27.895Z,102939.49
2023-02-07T19:51:03.209Z,102942.41
2023-02-07T19:53:34.848Z,102936.58
2023-02-07T19:56:09.532Z,102939.41
2023-02-07T19:58:42.255Z,102940.84
2023-02-07T20:01:13.642Z,102946.36
2023-02-07T20:03:46.206Z,102948.67
2023-02-07T20:06:17.329Z,102952.70
2023-02-07T20:08:48.084Z,102954.69
2023-02-07T20:11:21.008Z,102951.49
2023-02-07T20:13:54.036Z,102947.79
2023-02-07T20:16:27.590Z,102946.64
2023-02-07T20:18:58.556Z,102951.77
2023-02-07T20:21:33.553Z,102951.19
2023-02-07T20:24:05.061Z,102946.61
2023-02-07T20:26:39.006Z,102945.46
2023-02-07T20:29:13.152Z,102947.45
2023-02-07T20:31:45.096Z,102943.23
2023-02-07T20:34:16.588Z,102938.01
2023-02-07T20:36:47.685Z,102940.81
2023-02-07T20:39:20.897Z,102941.02
2023-02-07T20:41:52.472Z,102938.27
2023-02-07T20:44:26.509Z,102937.52
2023-02-07T20:46:59.561Z,102935.27
2023-02-07T20:49:32.160Z,102936.21
2023-02-07T20:52:03.342Z,102932.50
2023-02-07T20:54:34.107Z,102932.27
2023-02-07T20:57:04.942Z,102933.90
2023-02-07T20:59:36.194Z,102936.69
2023-02-07T21:02:07.213Z,102939.06
2023-02-07T21:04:39.366Z,102944.33
2023-02-07T21:07:11.122Z,102943.59
2023-02-07T21:09:42.329Z,102945.10
2023-02-07T21:12:13.231Z,102941.56
2023-02-07T21:14:44.233Z,102940.45
2023-02-07T21:17:15.408Z,102941.35
2023-02-07T21:19:46.369Z,102940.95
2023-02-07T21:22:17.206Z,102941.17
2023-02-07T21:24:48.523Z,102942.46
2023-02-07T21:27:19.291Z,102943.50
2023-02-07T21:29:50.342Z,102943.71
2023-02-07T21:32:21.184Z,102939.04
2023-02-07T21:34:51.932Z,102938.05
2023-02-07T21:37:24.583Z,102934.59
2023-02-07T21:39:55.897Z,102942.84
2023-02-07T21:42:26.732Z,102942.80
2023-02-07T21:44:57.469Z,102943.66
2023-02-07T21:47:29.494Z,102945.39
2023-02-07T21:50:00.263Z,102952.74
2023-02-07T21:52:31.873Z,102954.83
2023-02-07T21:55:02.760Z,102951.53
2023-02-07T21:57:33.423Z,102956.54
2023-02-07T22:00:04.534Z,102958.16
2023-02-07T22:02:55.101Z,102959.49
2023-02-07T22:05:26.090Z,102957.41
2023-02-07T22:07:56.866Z,102963.59
2023-02-07T22:10:27.604Z,102964.98
2023-02-07T22:12:59.754Z,102966.23
2023-02-07T22:15:31.676Z,102967.90
2023-02-07T22:18:03.413Z,102970.35
2023-02-07T22:20:34.630Z,102968.59
2023-02-07T22:23:05.399Z,102974.52
2023-02-07T22:25:39.585Z,102972.92
2023-02-07T22:28:10.932Z,102969.09
2023-02-07T22:30:43.090Z,102967.67
2023-02-07T22:33:14.024Z,102967.37
2023-02-07T22:35:45.647Z,102965.10
2023-02-07T22:38:17.311Z,102963.41
2023-02-07T22:40:47.957Z,102962.51
2023-02-07T22:43:19.380Z,102953.90
2023-02-07T22:45:50.197Z,102947.55
2023-02-07T22:48:21.253Z,102942.67
2023-02-07T22:50:52.030Z,102943.41
2023-02-07T22:53:22.676Z,102950.48
2023-02-07T22:55:53.325Z,102949.20
2023-02-07T22:58:24.194Z,102945.65
2023-02-07T23:00:54.929Z,102951.25
2023-02-07T23:03:25.615Z,102949.04
2023-02-07T23:05:56.289Z,102953.09
2023-02-07T23:08:27.173Z,102958.73
2023-02-07T23:10:57.979Z,102957.47
2023-02-07T23:13:28.969Z,102956.16
2023-02-07T23:15:59.766Z,102954.75
2023-02-07T23:18:30.560Z,102958.36
2023-02-07T23:21:01.243Z,102960.52
2023-02-07T23:23:31.943Z,102963.05
2023-02-07T23:26:02.780Z,102967.96
2023-02-07T23:28:33.574Z,102969.65
2023-02-07T23:31:04.468Z,102968.45
2023-02-07T23:33:36.002Z,102973.96
2023-02-07T23:36:08.477Z,102973.92
2023-02-07T23:38:39.527Z,102976.41
2023-02-07T23:41:10.352Z,102974.34
2023-02-07T23:43:41.624Z,102974.13
2023-02-07T23:46:13.700Z,102977.39
2023-02-07T23:48:44.567Z,102975.50
2023-02-07T23:51:16.186Z,102976.98
2023-02-07T23:53:47.071Z,102981.11
2023-02-07T23:56:21.190Z,102979.23
2023-02-07T23:58:53.018Z,102979.33
